sensor_id;sensor_type;location;lat;lon;timestamp;temperature;humidity
12843;DHT22;35724;49.324;-123.118;2023-04-03T00:03:08;25.50;35.90
12843;DHT22;35724;49.324;-123.118;2023-04-03T00:13:15;25.50;36.10
12843;DHT22;35724;49.324;-123.118;2023-04-03T00:23:23;25.60;36.50
12843;DHT22;35724;49.324;-123.118;2023-04-03T00:33:30;25.50;34.70
12843;DHT22;35724;49.324;-123.118;2023-04-03T00:43:39;25.40;34.20
12843;DHT22;35724;49.324;-123.118;2023-04-03T00:53:50;25.30;33.70
12843;DHT22;35724;49.324;-123.118;2023-04-03T01:04:01;25.20;33.40
12843;DHT22;35724;49.324;-123.118;2023-04-03T01:14:08;25.10;33.40
12843;DHT22;35724;49.324;-123.118;2023-04-03T01:24:35;25.10;33.30
12843;DHT22;35724;49.324;-123.118;2023-04-03T01:34:47;25.20;33.60
12843;DHT22;35724;49.324;-123.118;2023-04-03T01:44:54;25.10;31.80
12843;DHT22;35724;49.324;-123.118;2023-04-03T01:55:04;25.00;32.30
12843;DHT22;35724;49.324;-123.118;2023-04-03T02:05:11;25.00;34.50
12843;DHT22;35724;49.324;-123.118;2023-04-03T02:15:20;25.30;36.50
12843;DHT22;35724;49.324;-123.118;2023-04-03T02:25:27;25.50;38.40
12843;DHT22;35724;49.324;-123.118;2023-04-03T02:35:35;25.50;38.30
12843;DHT22;35724;49.324;-123.118;2023-04-03T02:45:43;25.50;36.20
12843;DHT22;35724;49.324;-123.118;2023-04-03T02:55:52;25.50;35.40
12843;DHT22;35724;49.324;-123.118;2023-04-03T03:06:03;25.50;35.60
12843;DHT22;35724;49.324;-123.118;2023-04-03T03:27:21;25.60;36.60
12843;DHT22;35724;49.324;-123.118;2023-04-03T03:37:31;25.80;38.20
12843;DHT22;35724;49.324;-123.118;2023-04-03T03:48:09;25.90;36.90
12843;DHT22;35724;49.324;-123.118;2023-04-03T04:11:06;26.00;36.00
12843;DHT22;35724;49.324;-123.118;2023-04-03T04:34:07;26.20;36.90
12843;DHT22;35724;49.324;-123.118;2023-04-03T04:44:16;26.40;37.10
12843;DHT22;35724;49.324;-123.118;2023-04-03T05:06:16;26.60;37.10
12843;DHT22;35724;49.324;-123.118;2023-04-03T05:16:39;26.70;37.30
12843;DHT22;35724;49.324;-123.118;2023-04-03T05:27:32;26.80;37.40
12843;DHT22;35724;49.324;-123.118;2023-04-03T05:38:04;26.80;37.30
12843;DHT22;35724;49.324;-123.118;2023-04-03T05:59:57;26.90;35.10
12843;DHT22;35724;49.324;-123.118;2023-04-03T06:10:37;26.80;34.00
12843;DHT22;35724;49.324;-123.118;2023-04-03T06:20:50;26.70;34.20
12843;DHT22;35724;49.324;-123.118;2023-04-03T06:31:06;26.70;34.10
12843;DHT22;35724;49.324;-123.118;2023-04-03T06:41:29;26.70;34.20
12843;DHT22;35724;49.324;-123.118;2023-04-03T06:51:45;26.80;34.30
12843;DHT22;35724;49.324;-123.118;2023-04-03T07:02:04;26.80;34.30
12843;DHT22;35724;49.324;-123.118;2023-04-03T07:12:32;26.80;34.30
12843;DHT22;35724;49.324;-123.118;2023-04-03T07:22:44;26.90;34.40
12843;DHT22;35724;49.324;-123.118;2023-04-03T07:32:59;26.90;34.30
12843;DHT22;35724;49.324;-123.118;2023-04-03T07:43:33;26.90;34.30
12843;DHT22;35724;49.324;-123.118;2023-04-03T07:53:48;27.00;34.40
12843;DHT22;35724;49.324;-123.118;2023-04-03T08:04:04;27.00;34.30
12843;DHT22;35724;49.324;-123.118;2023-04-03T08:14:15;27.00;34.30
12843;DHT22;35724;49.324;-123.118;2023-04-03T08:24:29;27.10;34.30
12843;DHT22;35724;49.324;-123.118;2023-04-03T08:34:40;27.10;34.20
12843;DHT22;35724;49.324;-123.118;2023-04-03T08:45:12;27.10;34.20
12843;DHT22;35724;49.324;-123.118;2023-04-03T08:55:27;27.20;34.30
12843;DHT22;35724;49.324;-123.118;2023-04-03T09:05:41;27.20;34.10
12843;DHT22;35724;49.324;-123.118;2023-04-03T09:15:53;27.20;34.10
12843;DHT22;35724;49.324;-123.118;2023-04-03T09:26:15;27.30;34.20
12843;DHT22;35724;49.324;-123.118;2023-04-03T09:36:43;27.30;34.10
12843;DHT22;35724;49.324;-123.118;2023-04-03T09:46:58;27.30;34.10
12843;DHT22;35724;49.324;-123.118;2023-04-03T09:57:15;27.30;34.00
12843;DHT22;35724;49.324;-123.118;2023-04-03T10:07:40;27.30;33.90
12843;DHT22;35724;49.324;-123.118;2023-04-03T10:18:03;27.40;33.90
12843;DHT22;35724;49.324;-123.118;2023-04-03T10:28:37;27.40;33.80
12843;DHT22;35724;49.324;-123.118;2023-04-03T10:38:57;27.50;33.80
12843;DHT22;35724;49.324;-123.118;2023-04-03T10:49:28;27.50;33.80
12843;DHT22;35724;49.324;-123.118;2023-04-03T10:59:46;27.50;33.80
12843;DHT22;35724;49.324;-123.118;2023-04-03T11:09:58;27.50;33.70
12843;DHT22;35724;49.324;-123.118;2023-04-03T11:20:15;27.50;33.60
12843;DHT22;35724;49.324;-123.118;2023-04-03T11:30:30;27.60;33.70
12843;DHT22;35724;49.324;-123.118;2023-04-03T11:40:45;27.60;33.60
12843;DHT22;35724;49.324;-123.118;2023-04-03T11:50:55;27.60;33.50
12843;DHT22;35724;49.324;-123.118;2023-04-03T12:01:07;27.70;33.50
12843;DHT22;35724;49.324;-123.118;2023-04-03T12:11:34;27.70;33.50
12843;DHT22;35724;49.324;-123.118;2023-04-03T12:22:07;27.70;33.40
12843;DHT22;35724;49.324;-123.118;2023-04-03T12:32:35;27.70;33.40
12843;DHT22;35724;49.324;-123.118;2023-04-03T12:53:24;27.70;33.30
12843;DHT22;35724;49.324;-123.118;2023-04-03T13:03:35;27.70;33.30
12843;DHT22;35724;49.324;-123.118;2023-04-03T13:14:02;27.70;33.20
12843;DHT22;35724;49.324;-123.118;2023-04-03T13:24:12;27.80;33.30
12843;DHT22;35724;49.324;-123.118;2023-04-03T13:34:37;27.80;33.30
12843;DHT22;35724;49.324;-123.118;2023-04-03T13:45:05;27.80;33.20
12843;DHT22;35724;49.324;-123.118;2023-04-03T13:55:21;27.80;33.10
12843;DHT22;35724;49.324;-123.118;2023-04-03T14:05:29;27.80;33.00
12843;DHT22;35724;49.324;-123.118;2023-04-03T14:15:39;27.90;33.00
12843;DHT22;35724;49.324;-123.118;2023-04-03T14:25:47;27.90;33.00
12843;DHT22;35724;49.324;-123.118;2023-04-03T14:35:59;27.90;32.90
12843;DHT22;35724;49.324;-123.118;2023-04-03T15:10:45;27.70;31.60
12843;DHT22;35724;49.324;-123.118;2023-04-03T15:20:57;27.60;31.40
12843;DHT22;35724;49.324;-123.118;2023-04-03T15:31:17;27.50;31.30
12843;DHT22;35724;49.324;-123.118;2023-04-03T15:41:29;27.50;31.50
12843;DHT22;35724;49.324;-123.118;2023-04-03T15:51:45;27.40;31.00
12843;DHT22;35724;49.324;-123.118;2023-04-03T16:02:19;27.40;30.60
12843;DHT22;35724;49.324;-123.118;2023-04-03T16:50:10;27.40;31.80
12843;DHT22;35724;49.324;-123.118;2023-04-03T16:59:36;27.40;32.20
12843;DHT22;35724;49.324;-123.118;2023-04-03T17:21:46;27.50;32.10
12843;DHT22;35724;49.324;-123.118;2023-04-03T17:31:59;27.70;32.10
12843;DHT22;35724;49.324;-123.118;2023-04-03T17:42:13;27.70;32.00
12843;DHT22;35724;49.324;-123.118;2023-04-03T17:52:30;27.70;32.00
12843;DHT22;35724;49.324;-123.118;2023-04-03T18:03:04;27.70;32.20
12843;DHT22;35724;49.324;-123.118;2023-04-03T18:13:15;27.70;32.30
12843;DHT22;35724;49.324;-123.118;2023-04-03T18:23:42;27.80;32.10
12843;DHT22;35724;49.324;-123.118;2023-04-03T18:33:50;27.90;32.00
12843;DHT22;35724;49.324;-123.118;2023-04-03T18:55:41;27.80;32.50
12843;DHT22;35724;49.324;-123.118;2023-04-03T20:03:18;27.00;31.30
12843;DHT22;35724;49.324;-123.118;2023-04-03T20:24:21;26.40;30.20
12843;DHT22;35724;49.324;-123.118;2023-04-03T20:34:35;26.20;29.80
12843;DHT22;35724;49.324;-123.118;2023-04-03T20:45:15;25.90;30.00
12843;DHT22;35724;49.324;-123.118;2023-04-03T20:56:44;25.70;30.90
12843;DHT22;35724;49.324;-123.118;2023-04-03T21:31:20;25.50;31.30
12843;DHT22;35724;49.324;-123.118;2023-04-03T21:42:55;25.50;31.20
12843;DHT22;35724;49.324;-123.118;2023-04-03T21:53:03;25.20;30.90
12843;DHT22;35724;49.324;-123.118;2023-04-03T22:03:18;25.20;31.50
12843;DHT22;35724;49.324;-123.118;2023-04-03T22:13:42;25.50;31.10
12843;DHT22;35724;49.324;-123.118;2023-04-03T22:23:50;25.40;30.70
12843;DHT22;35724;49.324;-123.118;2023-04-03T22:33:58;25.10;30.90
12843;DHT22;35724;49.324;-123.118;2023-04-03T22:44:12;24.80;31.30
12843;DHT22;35724;49.324;-123.118;2023-04-03T23:06:58;25.20;32.60
12843;DHT22;35724;49.324;-123.118;2023-04-03T23:29:08;25.70;32.30
12843;DHT22;35724;49.324;-123.118;2023-04-03T23:40:10;25.90;31.90
12843;DHT22;35724;49.324;-123.118;2023-04-03T23:50:24;26.00;31.70
